18°C Temp
17°C Dewpoint
94% Humidity
Temperature
8 KM/H
5 MPH
4 KTS
80°
Due East

Wind Speed
Partly Cloudy
Conditions
Pressure 1015.92 (hPa) - 30 (in)
Visibility 6.2 (mi) - 10.0 (km)

Current Conditions
LIRZ
Location Perugia 100(km)
Metar :LIRZ 090350Z AUTO 08004KT 040V130 9999 FEW150/// 18/17 Q1016
Tue 9th August 04:50 am

Airport
  Metar Aviation API Data Provided by https://www.checkwx.com/ PHP scripts by weather34.com ©2022